Time;durP1;ratioP1;P1;durP2;ratioP2;P2;SDS_P1;SDS_P2;PMS_P1;PMS_P2;Temp;Humidity;BMP_temperature;BMP_pressure;BME280_temperature;BME280_humidity;BME280_pressure;Samples;Min_cycle;Max_cycle;Signal;HPM_P1;HPM_P2
2023/05/12 00:01:31;;;;;;;33.40;21.75;;;11.80;99.90;;;;;;4908300;29;20487;-81
2023/05/12 00:03:56;;;;;;;35.88;22.98;;;11.80;99.90;;;;;;4924022;29;20047;-81
2023/05/12 00:06:22;;;;;;;36.92;23.90;;;11.70;99.90;;;;;;4955797;29;20066;-83
2023/05/12 00:08:49;;;;;;;39.13;24.35;;;11.70;99.90;;;;;;4955324;28;20182;-82
2023/05/12 00:11:14;;;;;;;40.97;25.55;;;11.70;99.90;;;;;;4939759;29;20047;-81
2023/05/12 00:13:40;;;;;;;40.30;25.38;;;11.70;99.90;;;;;;4955588;28;20050;-82
2023/05/12 00:16:06;;;;;;;42.92;26.77;;;11.70;99.90;;;;;;4939592;29;20051;-82
2023/05/12 00:18:32;;;;;;;43.47;26.90;;;11.70;99.90;;;;;;4923900;29;20086;-82
2023/05/12 00:20:58;;;;;;;47.13;28.35;;;11.70;99.90;;;;;;4955789;29;20050;-82
2023/05/12 00:23:23;;;;;;;51.60;28.77;;;11.70;99.90;;;;;;4955440;29;20079;-82
2023/05/12 00:25:49;;;;;;;50.42;29.67;;;11.70;99.90;;;;;;4955355;29;20403;-82
2023/05/12 00:28:16;;;;;;;52.60;30.50;;;11.70;99.90;;;;;;4923955;29;20533;-82
2023/05/12 00:30:42;;;;;;;53.08;31.02;;;11.70;99.90;;;;;;4923858;29;20483;-82
2023/05/12 00:33:08;;;;;;;52.35;31.77;;;11.80;99.90;;;;;;4923567;29;20094;-81
2023/05/12 00:35:34;;;;;;;56.67;33.17;;;11.70;99.90;;;;;;4955489;29;20131;-81
2023/05/12 00:37:59;;;;;;;54.72;32.22;;;11.80;99.90;;;;;;4955498;29;20035;-82
2023/05/12 00:40:25;;;;;;;53.88;33.28;;;11.80;99.90;;;;;;4923275;29;20043;-82
2023/05/12 00:42:51;;;;;;;58.50;32.60;;;11.80;99.90;;;;;;4939428;29;20058;-81
2023/05/12 00:45:17;;;;;;;58.15;34.70;;;11.80;99.90;;;;;;4923271;29;20031;-81
2023/05/12 00:47:45;;;;;;;57.85;33.25;;;11.80;99.90;;;;;;4907563;29;20178;-81
2023/05/12 00:50:11;;;;;;;61.60;35.22;;;11.80;99.90;;;;;;4955260;29;20403;-81
2023/05/12 00:52:36;;;;;;;57.17;34.50;;;11.70;99.90;;;;;;4955083;29;20043;-81
2023/05/12 00:55:04;;;;;;;58.67;34.85;;;11.80;99.90;;;;;;4923197;29;20036;-81
2023/05/12 00:57:31;;;;;;;62.25;34.95;;;11.70;99.90;;;;;;4922985;29;20521;-81
2023/05/12 00:59:57;;;;;;;64.03;36.28;;;11.80;99.90;;;;;;4938785;29;20303;-81
2023/05/12 01:02:23;;;;;;;64.82;36.72;;;11.80;99.90;;;;;;4955041;29;20138;-81
2023/05/12 01:04:50;;;;;;;67.88;38.40;;;11.80;99.90;;;;;;4954967;29;20138;-81
2023/05/12 01:07:20;;;;;;;73.43;39.08;;;11.80;99.90;;;;;;4954487;29;20082;-81
2023/05/12 01:09:46;;;;;;;70.55;37.53;;;11.80;99.90;;;;;;4954890;29;20483;-81
2023/05/12 01:12:11;;;;;;;69.38;39.25;;;11.80;99.90;;;;;;4954539;29;20046;-81
2023/05/12 01:14:38;;;;;;;66.18;37.30;;;11.80;99.90;;;;;;4954468;29;20487;-81
2023/05/12 01:17:10;;;;;;;87.78;41.30;;;11.80;99.90;;;;;;4954567;29;20098;-81
2023/05/12 01:20:00;;;;;;;71.13;39.85;;;11.80;99.90;;;;;;4954083;28;20047;-82
2023/05/12 01:22:30;;;;;;;82.85;41.03;;;11.80;99.90;;;;;;4954387;29;20047;-82
2023/05/12 01:25:08;;;;;;;66.72;39.33;;;11.80;99.90;;;;;;4938436;29;20129;-81
2023/05/12 01:27:38;;;;;;;76.90;40.53;;;11.90;99.90;;;;;;4938691;29;20043;-82
2023/05/12 01:30:05;;;;;;;74.93;41.53;;;11.90;99.90;;;;;;4954251;29;20098;-82
2023/05/12 01:32:31;;;;;;;90.95;44.45;;;11.90;99.90;;;;;;4922634;29;20043;-82
2023/05/12 01:34:56;;;;;;;91.05;45.28;;;11.90;99.90;;;;;;4954115;29;20331;-81
2023/05/12 01:37:25;;;;;;;96.68;46.05;;;11.90;99.90;;;;;;4954269;29;20043;-82
2023/05/12 01:39:51;;;;;;;83.85;43.10;;;11.80;99.90;;;;;;4954172;29;20047;-81
2023/05/12 01:42:17;;;;;;;79.25;42.85;;;11.80;99.90;;;;;;4891346;29;20047;-82
2023/05/12 01:44:43;;;;;;;84.45;43.88;;;11.90;99.90;;;;;;4954014;29;20122;-82
2023/05/12 01:47:10;;;;;;;104.00;46.17;;;11.90;99.90;;;;;;4953923;29;20499;-82
2023/05/12 01:49:39;;;;;;;96.60;45.85;;;11.90;99.90;;;;;;4922450;29;20483;-81
2023/05/12 01:52:05;;;;;;;80.82;44.78;;;11.90;99.90;;;;;;4922483;29;20554;-81
2023/05/12 01:54:31;;;;;;;95.72;47.50;;;11.90;99.90;;;;;;4922453;29;20495;-81
2023/05/12 01:56:56;;;;;;;97.28;47.35;;;11.90;99.90;;;;;;4921850;29;20113;-80
2023/05/12 01:59:22;;;;;;;108.53;48.97;;;11.90;99.90;;;;;;4922065;29;20054;-81
2023/05/12 02:01:48;;;;;;;82.35;44.85;;;11.90;99.90;;;;;;4953772;29;20494;-81
2023/05/12 02:04:14;;;;;;;90.35;46.17;;;11.90;99.90;;;;;;4953823;29;20050;-81
2023/05/12 02:06:39;;;;;;;81.25;45.92;;;11.90;99.90;;;;;;4906296;29;20043;-81
2023/05/12 02:09:05;;;;;;;104.68;49.40;;;11.90;99.90;;;;;;4953767;29;20054;-80
2023/05/12 02:11:31;;;;;;;89.40;46.70;;;11.90;99.90;;;;;;4921955;29;20039;-81
2023/05/12 02:13:57;;;;;;;80.55;44.58;;;12.00;99.90;;;;;;4953706;29;20043;-81
2023/05/12 02:16:23;;;;;;;96.72;48.65;;;12.00;99.90;;;;;;4921948;29;20075;-81
2023/05/12 02:18:49;;;;;;;91.07;46.95;;;12.00;99.90;;;;;;4953895;28;20035;-82
2023/05/12 02:21:14;;;;;;;86.30;47.33;;;12.00;99.90;;;;;;4953905;29;20137;-81
2023/05/12 02:23:40;;;;;;;93.13;49.78;;;12.00;99.90;;;;;;4953931;29;20039;-82
2023/05/12 02:26:06;;;;;;;103.38;49.75;;;12.00;99.90;;;;;;4953437;29;20082;-82
2023/05/12 02:28:32;;;;;;;108.18;51.70;;;12.00;99.90;;;;;;4921779;29;20043;-82
2023/05/12 02:30:58;;;;;;;92.65;49.33;;;12.00;99.90;;;;;;4922337;29;20503;-83
2023/05/12 02:33:24;;;;;;;114.57;53.83;;;12.00;99.90;;;;;;4926087;29;20435;-81
2023/05/12 02:35:50;;;;;;;98.93;50.65;;;12.00;99.90;;;;;;4957415;29;20075;-82
2023/05/12 02:38:16;;;;;;;89.22;48.22;;;12.10;99.90;;;;;;4957386;29;20047;-82
2023/05/12 02:40:41;;;;;;;121.93;53.03;;;12.00;99.90;;;;;;4925856;29;20483;-82
2023/05/12 02:43:07;;;;;;;99.00;51.08;;;12.10;99.90;;;;;;4957372;29;20063;-82
2023/05/12 02:45:33;;;;;;;89.47;47.85;;;12.10;99.90;;;;;;4925457;29;20434;-82
2023/05/12 02:47:59;;;;;;;130.10;54.95;;;12.10;99.90;;;;;;4957204;29;20497;-82
2023/05/12 02:50:25;;;;;;;104.25;51.88;;;12.10;99.90;;;;;;4925506;29;20039;-82
2023/05/12 02:52:50;;;;;;;116.82;54.22;;;12.00;99.90;;;;;;4909640;29;20427;-81
2023/05/12 02:55:16;;;;;;;119.45;56.53;;;12.10;99.90;;;;;;4925378;29;20398;-81
2023/05/12 02:57:43;;;;;;;107.32;53.22;;;12.10;99.90;;;;;;4925080;29;20106;-82
2023/05/12 03:00:09;;;;;;;103.93;52.92;;;12.10;99.90;;;;;;4957273;29;20375;-81
2023/05/12 03:02:37;;;;;;;104.80;52.42;;;12.10;99.90;;;;;;4956932;29;20087;-82
2023/05/12 03:05:04;;;;;;;99.72;51.38;;;12.10;99.90;;;;;;4957271;29;20129;-81
2023/05/12 03:07:30;;;;;;;102.97;52.00;;;12.10;99.90;;;;;;4956810;29;20054;-82
2023/05/12 03:09:57;;;;;;;103.22;52.58;;;12.10;99.90;;;;;;4956870;29;20047;-81
2023/05/12 03:12:22;;;;;;;107.88;54.63;;;12.10;99.90;;;;;;4956940;29;20077;-81
2023/05/12 03:14:48;;;;;;;113.07;53.60;;;12.20;99.90;;;;;;4941026;29;20455;-80
2023/05/12 03:17:14;;;;;;;126.43;57.42;;;12.20;99.90;;;;;;4925038;29;20078;-80
2023/05/12 03:19:40;;;;;;;113.55;55.63;;;12.10;99.90;;;;;;4956716;29;20074;-80
2023/05/12 03:22:08;;;;;;;121.57;56.75;;;12.10;99.90;;;;;;4925246;29;20109;-80
2023/05/12 03:24:35;;;;;;;176.90;63.22;;;12.10;99.90;;;;;;4940537;29;20047;-80
2023/05/12 03:27:01;;;;;;;122.78;56.65;;;12.10;99.90;;;;;;4940711;29;20122;-80
2023/05/12 03:29:27;;;;;;;111.82;54.83;;;12.10;99.90;;;;;;4924790;29;20043;-80
2023/05/12 03:31:52;;;;;;;138.23;57.95;;;12.20;99.90;;;;;;4924686;29;20535;-81
2023/05/12 03:34:18;;;;;;;127.43;57.47;;;12.20;99.90;;;;;;4956808;29;20039;-81
2023/05/12 03:36:44;;;;;;;123.18;57.28;;;12.20;99.90;;;;;;4956497;29;20043;-80
2023/05/12 03:39:11;;;;;;;119.85;57.28;;;12.20;99.90;;;;;;4924631;29;20126;-81
2023/05/12 03:41:37;;;;;;;120.47;57.47;;;12.20;99.90;;;;;;4940974;29;20039;-77
2023/05/12 03:44:04;;;;;;;140.73;59.15;;;12.20;99.90;;;;;;4955742;28;20047;-77
2023/05/12 03:46:30;;;;;;;114.90;55.45;;;12.20;99.90;;;;;;4956207;28;20097;-77
2023/05/12 03:48:57;;;;;;;118.50;55.95;;;12.20;99.90;;;;;;4956188;29;20047;-77
2023/05/12 03:51:24;;;;;;;128.95;58.38;;;12.20;99.90;;;;;;4908864;29;20043;-77
2023/05/12 03:53:50;;;;;;;151.02;61.38;;;12.20;99.90;;;;;;4956514;29;20117;-78
2023/05/12 03:56:16;;;;;;;161.23;61.38;;;12.20;99.90;;;;;;4940191;29;20159;-78
2023/05/12 03:58:42;;;;;;;127.28;57.90;;;12.20;99.90;;;;;;4940047;29;20138;-77
2023/05/12 04:01:08;;;;;;;164.57;63.08;;;12.20;99.90;;;;;;4955984;29;20051;-78
2023/05/12 04:03:34;;;;;;;112.65;54.80;;;12.20;99.90;;;;;;4909341;29;20062;-78
2023/05/12 04:06:01;;;;;;;136.57;58.58;;;12.20;99.90;;;;;;4956410;29;20039;-77
2023/05/12 04:08:27;;;;;;;107.80;55.53;;;12.30;99.90;;;;;;4924765;29;20043;-78
2023/05/12 04:10:58;;;;;;;107.72;54.80;;;12.30;99.90;;;;;;4924702;29;20492;-77
2023/05/12 04:13:24;;;;;;;99.95;53.33;;;12.30;99.90;;;;;;4956246;29;20051;-78
2023/05/12 04:15:53;;;;;;;94.45;52.90;;;12.30;99.90;;;;;;4933254;29;20043;-77
2023/05/12 04:18:19;;;;;;;94.45;51.70;;;12.30;99.90;;;;;;4932813;29;20051;-77
2023/05/12 04:20:45;;;;;;;88.20;49.08;;;12.30;99.90;;;;;;4965112;29;20058;-77
2023/05/12 04:23:10;;;;;;;90.18;50.70;;;12.30;99.90;;;;;;4943692;28;20027;-77
2023/05/12 04:25:42;;;;;;;83.80;49.03;;;12.40;99.90;;;;;;4980907;28;20039;-77
2023/05/12 04:28:09;;;;;;;90.10;48.60;;;12.40;99.90;;;;;;4981232;28;20043;-77
2023/05/12 04:30:37;;;;;;;82.38;46.70;;;12.40;99.90;;;;;;4958026;28;20039;-77
2023/05/12 04:33:03;;;;;;;89.85;48.65;;;12.40;99.90;;;;;;4956385;29;20051;-78
2023/05/12 04:35:29;;;;;;;83.25;48.40;;;12.40;99.90;;;;;;4955674;29;20558;-78
2023/05/12 04:37:54;;;;;;;92.18;49.45;;;12.40;99.90;;;;;;4955349;29;20046;-78
2023/05/12 04:40:20;;;;;;;88.40;49.47;;;12.50;99.90;;;;;;4955285;29;20047;-79
2023/05/12 04:42:46;;;;;;;102.85;52.38;;;12.50;99.90;;;;;;4923543;29;20082;-78
2023/05/12 04:45:12;;;;;;;103.38;51.20;;;12.50;99.90;;;;;;4955187;29;20545;-78
2023/05/12 04:47:37;;;;;;;100.95;50.78;;;12.50;99.90;;;;;;4955017;29;20047;-78
2023/05/12 04:50:04;;;;;;;108.38;53.20;;;12.50;99.90;;;;;;4955315;29;20047;-78
2023/05/12 04:52:30;;;;;;;100.30;51.47;;;12.50;99.90;;;;;;4955010;29;20101;-78
2023/05/12 04:54:56;;;;;;;116.47;53.97;;;12.50;99.90;;;;;;4954011;28;20126;-79
2023/05/12 04:57:22;;;;;;;102.40;52.15;;;12.50;99.90;;;;;;4907215;29;20086;-78
2023/05/12 04:59:48;;;;;;;104.68;52.70;;;12.50;99.90;;;;;;4955116;29;20047;-78
2023/05/12 05:02:14;;;;;;;114.68;55.90;;;12.50;99.90;;;;;;4954756;29;20050;-78
2023/05/12 05:04:39;;;;;;;108.40;53.03;;;12.50;99.90;;;;;;4923048;29;20388;-78
2023/05/12 05:07:05;;;;;;;94.65;51.78;;;12.50;99.90;;;;;;4922781;29;20051;-78
2023/05/12 05:09:31;;;;;;;92.45;50.72;;;12.50;99.90;;;;;;4954912;29;20089;-78
2023/05/12 05:11:57;;;;;;;93.80;50.90;;;12.60;99.90;;;;;;4907089;29;20043;-78
2023/05/12 05:14:22;;;;;;;101.25;53.28;;;12.60;99.90;;;;;;4922763;29;20039;-78
2023/05/12 05:16:48;;;;;;;110.13;53.88;;;12.60;99.90;;;;;;4954764;29;20491;-78
2023/05/12 05:19:15;;;;;;;106.75;53.03;;;12.60;99.90;;;;;;4954534;29;20039;-78
2023/05/12 05:21:41;;;;;;;118.03;53.88;;;12.60;99.90;;;;;;4954629;29;20554;-77
2023/05/12 05:24:07;;;;;;;104.65;52.60;;;12.60;99.90;;;;;;4922569;29;20179;-78
2023/05/12 05:26:33;;;;;;;120.07;55.58;;;12.60;99.90;;;;;;4954299;29;20051;-78
2023/05/12 05:28:59;;;;;;;113.97;54.92;;;12.60;99.90;;;;;;4954318;29;20043;-78
2023/05/12 05:31:27;;;;;;;121.05;56.30;;;12.60;99.90;;;;;;4954162;29;20380;-78
2023/05/12 05:33:53;;;;;;;100.80;49.63;;;12.50;99.90;;;;;;4922671;29;20507;-78
2023/05/12 05:36:23;;;;;;;80.60;46.10;;;12.60;99.90;;;;;;4954450;29;20478;-77
2023/05/12 05:38:49;;;;;;;106.75;54.90;;;12.70;99.90;;;;;;4954413;29;20057;-77
2023/05/12 05:41:14;;;;;;;97.03;52.22;;;12.70;99.90;;;;;;4922458;29;20047;-78
2023/05/12 05:43:40;;;;;;;110.30;54.55;;;12.70;99.90;;;;;;4954465;28;20121;-81
2023/05/12 05:46:07;;;;;;;108.65;54.03;;;12.70;99.90;;;;;;4954299;29;20467;-81
2023/05/12 05:48:32;;;;;;;111.68;55.53;;;12.70;99.90;;;;;;4954264;29;20475;-81
2023/05/12 05:50:58;;;;;;;101.97;52.72;;;12.70;99.90;;;;;;4954618;29;20046;-81
2023/05/12 05:53:24;;;;;;;97.20;53.45;;;12.70;99.90;;;;;;4954163;29;20094;-81
2023/05/12 05:55:50;;;;;;;87.47;49.80;;;12.70;99.90;;;;;;4954233;29;20039;-81
2023/05/12 05:58:16;;;;;;;114.75;55.75;;;12.70;99.90;;;;;;4953665;29;20055;-82
2023/05/12 06:00:42;;;;;;;76.15;48.35;;;12.80;99.90;;;;;;4953911;29;20049;-83
2023/05/12 06:03:08;;;;;;;80.57;49.03;;;12.80;99.90;;;;;;4922179;29;20126;-82
2023/05/12 06:05:34;;;;;;;90.18;51.85;;;12.80;99.90;;;;;;4937102;28;20043;-82
2023/05/12 10:47:00;;;;;;;21.60;19.50;;;20.70;99.90;;;;;;4936630;29;20110;-86
2023/05/12 10:49:36;;;;;;;22.02;19.83;;;21.00;99.90;;;;;;4918361;29;20095;-85
2023/05/12 10:52:02;;;;;;;22.85;20.65;;;21.20;99.90;;;;;;4919341;29;20080;-84
2023/05/12 10:54:28;;;;;;;22.27;20.05;;;21.30;99.90;;;;;;4906610;29;20043;-84
2023/05/12 10:56:58;;;;;;;19.70;17.80;;;21.40;99.90;;;;;;4893122;29;20042;-84
2023/05/12 10:59:25;;;;;;;19.95;17.92;;;21.50;99.90;;;;;;4956054;28;20047;-83
2023/05/12 11:01:57;;;;;;;19.30;17.42;;;21.80;99.90;;;;;;4957357;29;20077;-85
2023/05/12 11:04:40;;;;;;;18.25;16.52;;;21.80;99.90;;;;;;4957007;29;20509;-84
2023/05/12 11:07:08;;;;;;;17.88;16.23;;;22.10;99.90;;;;;;4956897;28;20047;-84
2023/05/12 11:09:36;;;;;;;19.80;17.90;;;22.40;99.90;;;;;;4957133;29;20043;-83
2023/05/12 11:12:02;;;;;;;21.63;19.52;;;22.30;99.90;;;;;;4925108;29;20031;-84
2023/05/12 11:19:52;;;;;;;18.90;16.95;;;22.70;99.90;;;;;;5848500;23;20062;-77
2023/05/12 11:22:20;;;;;;;17.73;16.00;;;22.80;99.90;;;;;;4944326;28;20043;-78
2023/05/12 11:24:47;;;;;;;17.88;16.08;;;22.90;99.90;;;;;;4959766;28;20043;-76
2023/05/12 11:27:15;;;;;;;17.83;16.13;;;22.90;99.90;;;;;;4956250;29;20058;-76
2023/05/12 11:29:42;;;;;;;18.70;16.83;;;23.00;99.90;;;;;;4956561;28;20039;-76
2023/05/12 11:32:11;;;;;;;15.48;13.88;;;23.00;99.90;;;;;;4952440;28;20038;-78
2023/05/12 11:34:37;;;;;;;16.50;14.80;;;23.10;99.90;;;;;;4942386;28;20162;-77
2023/05/12 11:37:05;;;;;;;15.65;14.05;;;23.00;99.90;;;;;;4959181;28;20046;-77
2023/05/12 11:39:31;;;;;;;14.20;12.63;;;22.80;99.90;;;;;;4927886;28;20093;-81
2023/05/12 11:42:08;;;;;;;14.32;12.52;;;22.70;99.90;;;;;;4975837;28;20494;-77
2023/05/12 11:44:35;;;;;;;14.38;11.95;;;22.90;99.90;;;;;;4928258;28;20042;-77
2023/05/12 11:47:10;;;;;;;12.82;11.48;;;23.10;99.90;;;;;;4943638;28;20552;-77
2023/05/12 11:49:49;;;;;;;13.52;12.13;;;23.10;99.10;;;;;;4943405;28;20043;-76
2023/05/12 11:52:15;;;;;;;13.35;11.95;;;22.80;99.90;;;;;;4959864;28;20563;-76
2023/05/12 11:54:59;;;;;;;13.30;11.90;;;23.10;99.90;;;;;;4943707;28;20540;-79
2023/05/12 11:57:30;;;;;;;10.68;9.57;;;22.80;99.90;;;;;;4973044;28;20043;-77
2023/05/12 12:00:05;;;;;;;11.43;8.90;;;23.00;99.90;;;;;;4959173;28;20047;-77
2023/05/12 12:02:32;;;;;;;10.63;8.40;;;23.20;97.50;;;;;;4957206;28;20069;-77
2023/05/12 12:04:58;;;;;;;11.25;8.93;;;23.30;95.80;;;;;;4942491;28;20545;-77
2023/05/12 12:07:32;;;;;;;9.70;8.35;;;23.30;95.20;;;;;;4918430;29;20090;-77
2023/05/12 12:10:09;;;;;;;9.18;7.40;;;23.30;96.30;;;;;;4955843;29;20082;-77
2023/05/12 12:12:35;;;;;;;9.52;7.90;;;23.40;94.50;;;;;;4956022;29;20486;-77
2023/05/12 12:15:05;;;;;;;11.15;7.80;;;23.30;94.60;;;;;;4924553;29;20050;-77
2023/05/12 12:17:30;;;;;;;9.32;7.80;;;23.10;94.10;;;;;;4947521;29;20047;-77
2023/05/12 12:19:57;;;;;;;10.02;8.77;;;23.30;96.60;;;;;;4958284;28;20050;-77
2023/05/12 12:22:22;;;;;;;8.20;6.32;;;23.10;95.40;;;;;;4942867;28;20086;-76
2023/05/12 12:24:48;;;;;;;11.25;5.50;;;23.20;96.10;;;;;;4904196;29;125172;-77
2023/05/12 12:27:14;;;;;;;8.90;6.82;;;23.30;93.50;;;;;;4961626;28;20089;-77
2023/05/12 12:29:40;;;;;;;10.80;6.07;;;23.50;92.80;;;;;;4959106;28;20498;-77
2023/05/12 12:32:07;;;;;;;7.72;5.70;;;23.50;92.10;;;;;;4958406;28;20047;-77
2023/05/12 12:34:33;;;;;;;8.18;5.63;;;23.50;90.30;;;;;;4956657;28;20121;-77
2023/05/12 12:36:59;;;;;;;8.13;5.55;;;23.50;86.80;;;;;;4951859;28;20133;-77
2023/05/12 12:39:25;;;;;;;8.98;5.75;;;23.50;89.30;;;;;;4958393;28;20516;-77
2023/05/12 12:41:52;;;;;;;9.02;4.93;;;23.60;90.80;;;;;;4958759;28;20101;-78
2023/05/12 12:44:18;;;;;;;7.50;4.40;;;23.70;90.60;;;;;;4958753;28;20108;-77
2023/05/12 12:46:44;;;;;;;7.47;4.82;;;23.60;79.40;;;;;;4958246;28;20046;-78
2023/05/12 12:49:10;;;;;;;6.88;4.63;;;23.40;79.90;;;;;;4926762;28;20046;-78
2023/05/12 12:51:36;;;;;;;7.10;4.50;;;23.50;81.80;;;;;;4958189;28;20039;-78
2023/05/12 12:54:02;;;;;;;7.18;4.60;;;23.60;84.90;;;;;;4958649;28;20490;-78
2023/05/12 12:56:28;;;;;;;7.45;5.10;;;23.50;82.30;;;;;;4926329;28;20062;-77
2023/05/12 12:58:55;;;;;;;7.13;4.40;;;23.50;82.10;;;;;;4958129;28;20043;-78
2023/05/12 13:01:21;;;;;;;6.30;4.22;;;23.10;83.20;;;;;;4926427;28;20042;-78
2023/05/12 13:03:47;;;;;;;7.30;4.70;;;22.90;82.10;;;;;;4958307;28;20486;-77
2023/05/12 13:06:13;;;;;;;7.55;4.53;;;22.70;84.20;;;;;;4925462;28;20047;-77
2023/05/12 13:08:39;;;;;;;6.75;4.35;;;22.70;83.70;;;;;;4926016;28;20082;-77
2023/05/12 13:11:05;;;;;;;7.80;4.53;;;22.60;80.10;;;;;;4957882;28;20043;-77
2023/05/12 13:13:31;;;;;;;8.15;4.38;;;22.60;80.90;;;;;;4941982;28;20489;-77
2023/05/12 13:15:57;;;;;;;8.73;4.43;;;22.70;81.40;;;;;;4957149;28;20063;-77
2023/05/12 13:18:22;;;;;;;5.70;4.00;;;22.80;80.80;;;;;;4957868;28;20094;-78
2023/05/12 13:20:48;;;;;;;6.57;4.18;;;22.80;79.50;;;;;;4941759;28;20130;-78
2023/05/12 13:23:14;;;;;;;6.65;4.90;;;22.90;82.80;;;;;;4925954;28;20046;-78
2023/05/12 13:25:40;;;;;;;8.05;4.60;;;22.90;79.50;;;;;;4925931;28;20038;-78
2023/05/12 13:28:07;;;;;;;7.25;4.75;;;22.90;80.90;;;;;;4925753;28;20046;-78
2023/05/12 13:30:33;;;;;;;7.32;4.38;;;22.90;82.00;;;;;;4942154;28;20525;-78
2023/05/12 13:32:59;;;;;;;6.90;3.90;;;22.90;80.90;;;;;;4957538;28;20042;-77
2023/05/12 13:35:25;;;;;;;7.57;4.18;;;23.00;76.10;;;;;;4925660;28;20508;-78
2023/05/12 13:37:51;;;;;;;6.13;4.00;;;23.00;78.90;;;;;;4941553;28;20133;-78
2023/05/12 13:40:17;;;;;;;6.68;3.50;;;23.00;77.00;;;;;;4925900;28;20045;-77
2023/05/12 13:42:43;;;;;;;6.22;3.30;;;22.70;80.80;;;;;;4909988;28;20109;-77
2023/05/12 13:45:09;;;;;;;5.75;2.83;;;22.50;73.60;;;;;;4925521;28;20096;-78
2023/05/12 13:47:35;;;;;;;6.72;3.08;;;22.30;70.40;;;;;;4925720;28;20034;-82
2023/05/12 13:50:01;;;;;;;7.13;3.05;;;21.90;69.00;;;;;;4909844;28;20126;-82
2023/05/12 13:52:26;;;;;;;5.60;3.17;;;21.90;73.60;;;;;;4925539;28;20038;-83
2023/05/12 13:54:52;;;;;;;6.20;3.10;;;21.90;71.10;;;;;;4925462;28;20078;-82
2023/05/12 13:57:19;;;;;;;6.90;3.13;;;21.70;73.90;;;;;;4973548;28;20054;-83
2023/05/12 13:59:45;;;;;;;6.00;3.15;;;21.60;77.30;;;;;;4973191;28;20078;-83
2023/05/12 14:02:12;;;;;;;6.70;3.35;;;21.60;79.90;;;;;;4973156;28;20555;-83
2023/05/12 14:04:38;;;;;;;7.43;3.20;;;21.70;79.70;;;;;;4941102;28;20074;-83
2023/05/12 14:07:04;;;;;;;5.82;2.90;;;21.60;82.50;;;;;;4940548;28;20536;-82
2023/05/12 14:09:30;;;;;;;6.50;2.65;;;21.50;73.70;;;;;;4935594;28;20498;-82
2023/05/12 14:11:57;;;;;;;4.85;2.70;;;21.60;71.30;;;;;;4952524;28;20094;-82
2023/05/12 14:14:23;;;;;;;7.40;2.97;;;21.60;74.70;;;;;;4936323;28;20117;-82
2023/05/12 14:16:49;;;;;;;7.43;3.03;;;21.70;73.00;;;;;;4925490;28;20130;-82
2023/05/12 14:19:15;;;;;;;6.28;3.00;;;21.70;74.40;;;;;;4956748;28;20042;-83
2023/05/12 14:21:41;;;;;;;5.32;2.92;;;21.80;71.50;;;;;;4956926;28;20087;-82
2023/05/12 14:24:07;;;;;;;6.70;2.80;;;21.70;74.00;;;;;;4956816;28;20089;-83
2023/05/12 14:26:33;;;;;;;6.47;2.72;;;21.80;69.60;;;;;;4957423;28;20498;-83
2023/05/12 14:28:59;;;;;;;6.78;2.78;;;21.70;69.90;;;;;;4944856;28;20043;-83
2023/05/12 14:31:25;;;;;;;6.05;2.90;;;21.80;68.40;;;;;;4913468;28;20434;-83
2023/05/12 14:33:52;;;;;;;5.60;2.60;;;21.80;70.80;;;;;;4960992;28;20039;-83
2023/05/12 14:36:18;;;;;;;5.38;2.60;;;21.80;69.60;;;;;;4960558;28;20490;-83
2023/05/12 14:38:44;;;;;;;5.72;2.60;;;21.70;65.90;;;;;;4929017;28;20549;-83
2023/05/12 14:41:12;;;;;;;6.47;2.70;;;21.70;68.50;;;;;;4944663;28;20043;-83
2023/05/12 14:43:38;;;;;;;6.57;2.92;;;21.60;68.90;;;;;;4960782;28;20569;-83
2023/05/12 14:46:05;;;;;;;6.07;2.90;;;21.50;71.50;;;;;;4944603;28;20125;-84
2023/05/12 14:48:30;;;;;;;5.22;2.70;;;21.40;72.90;;;;;;4944601;28;20050;-84
2023/05/12 14:50:57;;;;;;;5.70;2.63;;;21.40;73.00;;;;;;4944423;28;20039;-84
2023/05/12 14:53:23;;;;;;;6.15;2.70;;;21.50;75.90;;;;;;4976728;28;20528;-84
2023/05/12 14:55:51;;;;;;;6.88;2.70;;;21.70;77.50;;;;;;4944894;28;20509;-84
2023/05/12 14:58:17;;;;;;;5.47;2.47;;;22.00;75.30;;;;;;4944365;28;20482;-84
2023/05/12 15:00:44;;;;;;;6.00;2.42;;;22.30;73.30;;;;;;4944245;28;20049;-83
2023/05/12 15:03:10;;;;;;;5.65;2.40;;;22.40;70.40;;;;;;4944142;28;20132;-83
2023/05/12 15:05:36;;;;;;;6.10;2.53;;;22.60;65.30;;;;;;4944465;28;20039;-83
2023/05/12 15:08:02;;;;;;;5.88;2.35;;;22.60;65.60;;;;;;4928367;28;20125;-84
2023/05/12 15:10:28;;;;;;;6.45;2.60;;;22.50;63.90;;;;;;4944406;28;20089;-83
2023/05/12 15:12:56;;;;;;;5.50;2.30;;;22.50;66.10;;;;;;4944344;28;20046;-83
2023/05/12 15:15:22;;;;;;;6.88;2.50;;;22.40;66.40;;;;;;4928787;28;20051;-84
2023/05/12 15:17:48;;;;;;;5.68;2.45;;;22.40;65.50;;;;;;4976395;28;20055;-84
2023/05/12 15:20:15;;;;;;;6.50;2.53;;;22.50;62.70;;;;;;4975841;28;20086;-83
2023/05/12 15:22:40;;;;;;;6.65;2.47;;;22.60;63.20;;;;;;4927884;28;20066;-83
2023/05/12 15:25:07;;;;;;;4.82;2.47;;;22.60;59.00;;;;;;4943821;28;20159;-83
2023/05/12 15:27:33;;;;;;;6.00;2.40;;;22.60;58.20;;;;;;4943851;28;20049;-83
2023/05/12 15:29:58;;;;;;;6.13;2.38;;;22.50;59.10;;;;;;4928184;28;20043;-84
2023/05/12 15:32:27;;;;;;;6.28;2.35;;;22.30;62.10;;;;;;4928036;28;20038;-83
2023/05/12 15:34:57;;;;;;;6.40;2.83;;;22.20;62.80;;;;;;4943953;28;20035;-83
2023/05/12 15:37:23;;;;;;;4.82;2.67;;;22.10;61.60;;;;;;4975821;28;20070;-83
2023/05/12 15:39:52;;;;;;;5.50;2.78;;;22.10;64.40;;;;;;4974648;28;20046;-83
2023/05/12 15:42:18;;;;;;;4.20;2.40;;;21.90;64.00;;;;;;4928078;28;20043;-84
2023/05/12 15:44:45;;;;;;;6.88;2.20;;;22.10;61.70;;;;;;4943447;28;20128;-85
2023/05/12 15:47:11;;;;;;;6.07;2.25;;;22.20;59.50;;;;;;4928020;28;20043;-84
2023/05/12 15:49:37;;;;;;;5.82;2.30;;;22.30;59.20;;;;;;4943404;28;20049;-84
2023/05/12 15:52:03;;;;;;;5.75;2.58;;;22.30;62.50;;;;;;4911843;28;20042;-85
2023/05/12 15:54:29;;;;;;;6.32;2.80;;;22.20;66.90;;;;;;4943597;28;20043;-85
2023/05/12 15:56:55;;;;;;;7.00;2.97;;;22.10;68.60;;;;;;4943387;28;20056;-85
2023/05/12 15:59:21;;;;;;;6.40;2.88;;;22.00;70.90;;;;;;4943424;28;20046;-87
2023/05/12 16:01:47;;;;;;;7.07;3.00;;;21.90;71.50;;;;;;4943211;28;20049;-86
2023/05/12 16:04:13;;;;;;;5.65;2.90;;;21.70;70.70;;;;;;4927369;28;20047;-85
2023/05/12 16:06:39;;;;;;;6.22;2.67;;;21.60;71.90;;;;;;4911654;28;20482;-87
2023/05/12 16:09:06;;;;;;;6.90;2.75;;;21.40;69.10;;;;;;4905941;28;20498;-88
2023/05/12 16:11:31;;;;;;;5.85;2.50;;;21.40;66.90;;;;;;4959582;28;20035;-87
2023/05/12 16:13:58;;;;;;;6.80;2.55;;;21.40;67.50;;;;;;4959106;28;20536;-87
2023/05/12 16:16:24;;;;;;;7.10;2.53;;;21.50;64.80;;;;;;4943121;28;20050;-87
2023/05/12 16:18:50;;;;;;;6.25;2.38;;;21.60;62.60;;;;;;4927261;28;20134;-87
2023/05/12 16:21:16;;;;;;;4.80;2.00;;;21.60;60.00;;;;;;4926916;28;20062;-87
2023/05/12 16:23:41;;;;;;;6.97;2.20;;;21.70;60.70;;;;;;4927055;28;20494;-86
2023/05/12 16:26:07;;;;;;;4.97;2.17;;;21.90;59.10;;;;;;4927128;28;20157;-87
2023/05/12 16:28:33;;;;;;;4.63;2.10;;;21.90;56.40;;;;;;4958855;28;20051;-86
2023/05/12 16:31:03;;;;;;;5.45;2.30;;;21.90;54.90;;;;;;4958754;28;20544;-86
2023/05/12 16:33:29;;;;;;;4.75;2.33;;;21.90;56.30;;;;;;4926840;28;20081;-87
2023/05/12 16:35:55;;;;;;;3.97;2.00;;;21.90;55.80;;;;;;4942825;28;20046;-87
2023/05/12 16:38:21;;;;;;;7.57;2.60;;;22.00;55.30;;;;;;4958092;28;20082;-86
2023/05/12 16:40:47;;;;;;;5.18;2.33;;;21.90;56.10;;;;;;4942500;28;20070;-85
2023/05/12 16:43:12;;;;;;;6.07;2.47;;;21.90;55.10;;;;;;4927017;28;20192;-87
2023/05/12 16:45:38;;;;;;;6.22;2.50;;;21.80;57.70;;;;;;4958398;28;20134;-86
2023/05/12 16:48:05;;;;;;;5.43;2.58;;;21.90;59.20;;;;;;4942260;28;20042;-87
2023/05/12 16:50:31;;;;;;;7.00;2.95;;;21.80;60.40;;;;;;4958146;28;20039;-86
2023/05/12 16:52:57;;;;;;;5.82;2.85;;;21.80;60.40;;;;;;4958798;28;20066;-86
2023/05/12 16:55:22;;;;;;;6.28;2.67;;;21.70;62.60;;;;;;4958185;28;20042;-86
2023/05/12 16:57:48;;;;;;;6.88;2.67;;;21.70;63.90;;;;;;4958156;28;20050;-86
2023/05/12 17:00:15;;;;;;;6.15;3.00;;;21.60;66.00;;;;;;4926607;28;20046;-85
2023/05/12 17:02:40;;;;;;;6.53;2.85;;;21.60;65.40;;;;;;4958218;28;20509;-85
2023/05/12 17:05:06;;;;;;;5.10;2.90;;;21.60;66.20;;;;;;4942127;28;20050;-85
2023/05/12 17:07:34;;;;;;;6.55;3.20;;;21.60;67.70;;;;;;4941916;28;20042;-85
2023/05/12 17:10:00;;;;;;;8.07;3.10;;;21.50;68.80;;;;;;4942216;28;20125;-85
2023/05/12 17:12:26;;;;;;;6.03;3.42;;;21.50;69.60;;;;;;4942235;28;20050;-85
2023/05/12 17:14:52;;;;;;;7.57;3.20;;;21.40;69.90;;;;;;4942012;28;20037;-85